createdAt,value
2019-05-14T00:01:37.134Z,99678.61
2019-05-14T00:04:42.311Z,99687.28
2019-05-14T00:07:47.075Z,99678.03
2019-05-14T00:10:52.085Z,99681.50
2019-05-14T00:13:56.982Z,99672.77
2019-05-14T00:17:01.748Z,99678.09
2019-05-14T00:20:10.225Z,99673.07
2019-05-14T00:23:14.552Z,99674.69
2019-05-14T00:26:21.345Z,99673.90
2019-05-14T00:29:25.772Z,99665.89
2019-05-14T00:32:31.758Z,99664.73
2019-05-14T00:35:36.321Z,99643.53
2019-05-14T00:38:41.980Z,99643.58
2019-05-14T00:41:46.831Z,99647.05
2019-05-14T00:44:57.409Z,99640.02
2019-05-14T00:47:57.424Z,99636.75
2019-05-14T00:51:02.502Z,99640.34
2019-05-14T00:54:07.393Z,99636.63
2019-05-14T00:57:12.184Z,99643.81
2019-05-14T01:00:16.734Z,99641.92
2019-05-14T01:03:21.741Z,99647.08
2019-05-14T01:06:26.364Z,99649.30
2019-05-14T01:09:31.437Z,99644.63
2019-05-14T01:12:36.036Z,99644.30
2019-05-14T01:15:41.456Z,99639.98
2019-05-14T01:18:46.363Z,99633.03
2019-05-14T01:21:51.228Z,99634.58
2019-05-14T01:24:55.575Z,99626.44
2019-05-14T01:28:02.178Z,99633.20
2019-05-14T01:31:06.506Z,99631.31
2019-05-14T01:34:11.303Z,99631.27
2019-05-14T01:37:15.847Z,99630.05
2019-05-14T01:40:21.862Z,99624.38
2019-05-14T01:43:26.504Z,99620.50
2019-05-14T01:46:31.643Z,99627.37
2019-05-14T01:49:36.257Z,99620.11
2019-05-14T01:52:41.482Z,99616.25
2019-05-14T01:55:46.203Z,99600.97
2019-05-14T01:58:52.292Z,99600.87
2019-05-14T02:01:56.957Z,99602.30
2019-05-14T02:05:02.098Z,99603.34
2019-05-14T02:08:06.613Z,99609.28
2019-05-14T02:11:12.106Z,99601.61
2019-05-14T02:14:16.656Z,99605.69
2019-05-14T02:17:21.387Z,99600.79
2019-05-14T02:20:26.400Z,99601.00
2019-05-14T02:23:32.061Z,99595.03
2019-05-14T02:26:36.925Z,99594.45
2019-05-14T02:29:41.856Z,99587.72
2019-05-14T02:32:49.576Z,99585.96
2019-05-14T02:35:52.587Z,99582.71
2019-05-14T02:39:00.099Z,99582.10
2019-05-14T02:42:03.251Z,99587.63
2019-05-14T02:45:09.211Z,99587.20
2019-05-14T02:48:13.710Z,99588.95
2019-05-14T02:51:19.960Z,99582.51
2019-05-14T02:54:24.353Z,99581.30
2019-05-14T02:57:30.417Z,99587.81
2019-05-14T03:00:34.996Z,99596.52
2019-05-14T03:03:40.427Z,99587.83
2019-05-14T03:06:45.037Z,99586.19
2019-05-14T03:09:50.271Z,99590.47
2019-05-14T03:12:55.226Z,99581.16
2019-05-14T03:16:01.388Z,99579.61
2019-05-14T03:19:06.152Z,99583.89
2019-05-14T03:22:11.360Z,99584.31
2019-05-14T03:25:19.166Z,99581.73
2019-05-14T03:28:22.119Z,99579.71
2019-05-14T03:31:32.231Z,99584.42
2019-05-14T03:34:33.886Z,99586.78
2019-05-14T03:37:39.205Z,99584.95
2019-05-14T03:40:43.644Z,99581.99
2019-05-14T03:43:49.449Z,99576.58
2019-05-14T03:46:55.974Z,99571.38
2019-05-14T03:50:00.340Z,99572.08
2019-05-14T03:53:04.770Z,99571.55
2019-05-14T03:56:10.453Z,99572.08
2019-05-14T03:59:15.040Z,99573.41
2019-05-14T04:02:20.104Z,99580.66
2019-05-14T04:05:24.979Z,99578.50
2019-05-14T04:08:32.707Z,99574.89
2019-05-14T04:11:39.830Z,99577.78
2019-05-14T04:14:45.952Z,99573.28
2019-05-14T04:17:50.816Z,99569.51
2019-05-14T04:20:59.842Z,99573.59
2019-05-14T04:24:05.229Z,99575.94
2019-05-14T04:27:13.076Z,99575.20
2019-05-14T04:30:23.593Z,99576.44
2019-05-14T04:33:29.905Z,99578.00
2019-05-14T04:36:32.809Z,99575.20
2019-05-14T04:39:39.650Z,99573.16
2019-05-14T04:42:44.673Z,99571.23
2019-05-14T04:45:50.164Z,99568.98
2019-05-14T04:48:55.119Z,99567.47
2019-05-14T04:51:59.915Z,99567.27
2019-05-14T04:55:05.152Z,99557.66
2019-05-14T04:58:10.250Z,99561.23
2019-05-14T05:01:14.865Z,99562.14
2019-05-14T05:04:20.224Z,99563.67
2019-05-14T05:07:25.004Z,99566.59
2019-05-14T05:10:29.862Z,99558.48
2019-05-14T05:13:34.751Z,99557.70
2019-05-14T05:16:39.423Z,99549.46
2019-05-14T05:19:45.767Z,99545.53
2019-05-14T05:22:50.051Z,99547.16
2019-05-14T05:25:54.486Z,99554.17
2019-05-14T05:29:05.868Z,99549.67
2019-05-14T05:32:05.686Z,99554.91
2019-05-14T05:35:10.185Z,99551.48
2019-05-14T05:38:15.361Z,99552.72
2019-05-14T05:41:19.796Z,99552.96
2019-05-14T05:44:24.221Z,99556.09
2019-05-14T05:47:28.907Z,99555.80
2019-05-14T05:50:33.363Z,99547.27
2019-05-14T05:53:39.425Z,99545.13
2019-05-14T05:56:44.351Z,99532.32
2019-05-14T05:59:48.824Z,99535.75
2019-05-14T06:02:53.221Z,99536.03
2019-05-14T06:05:59.337Z,99530.17
2019-05-14T06:09:04.940Z,99525.23
2019-05-14T06:12:09.646Z,99531.67
2019-05-14T06:15:14.562Z,99532.95
2019-05-14T06:18:22.182Z,99529.74
2019-05-14T06:21:25.598Z,99527.17
2019-05-14T06:24:30.031Z,99516.42
2019-05-14T06:27:34.739Z,99507.95
2019-05-14T06:30:41.225Z,99507.84
2019-05-14T06:33:48.408Z,99505.98
2019-05-14T06:36:51.839Z,99505.43
2019-05-14T06:39:58.417Z,99511.84
2019-05-14T06:43:02.789Z,99502.30
2019-05-14T06:46:08.981Z,99499.53
2019-05-14T06:49:13.688Z,99500.61
2019-05-14T06:52:18.872Z,99505.44
2019-05-14T06:55:23.436Z,99504.19
2019-05-14T06:58:29.826Z,99501.06
2019-05-14T07:01:34.056Z,99492.89
2019-05-14T07:04:39.456Z,99498.36
2019-05-14T07:07:44.639Z,99496.08
2019-05-14T07:10:49.072Z,99486.60
2019-05-14T07:13:53.504Z,99482.70
2019-05-14T07:16:58.832Z,99485.02
2019-05-14T07:20:04.872Z,99480.77
2019-05-14T07:23:09.311Z,99477.29
2019-05-14T07:26:14.041Z,99472.17
2019-05-14T07:29:18.708Z,99468.92
2019-05-14T07:32:23.243Z,99473.25
2019-05-14T07:35:28.814Z,99471.08
2019-05-14T07:38:33.476Z,99476.47
2019-05-14T07:41:39.051Z,99470.27
2019-05-14T07:44:43.987Z,99466.77
2019-05-14T07:47:49.349Z,99465.95
2019-05-14T07:50:54.243Z,99460.55
2019-05-14T07:53:58.683Z,99457.05
2019-05-14T07:57:03.395Z,99458.39
2019-05-14T08:00:13.031Z,99455.14
2019-05-14T08:03:19.016Z,99449.15
2019-05-14T08:06:23.935Z,99450.24
2019-05-14T08:09:28.542Z,99445.59
2019-05-14T08:12:33.290Z,99445.11
2019-05-14T08:15:38.702Z,99427.70
2019-05-14T08:18:43.677Z,99435.83
2019-05-14T08:21:48.294Z,99433.43
2019-05-14T08:24:53.039Z,99434.19
2019-05-14T08:27:58.660Z,99432.48
2019-05-14T08:31:03.194Z,99427.06
2019-05-14T08:34:09.232Z,99425.38
2019-05-14T08:37:13.870Z,99423.39
2019-05-14T08:40:20.995Z,99416.27
2019-05-14T08:43:25.823Z,99418.98
2019-05-14T08:46:30.657Z,99422.20
2019-05-14T08:49:42.585Z,99414.55
2019-05-14T08:52:41.863Z,99413.42
2019-05-14T08:55:48.471Z,99408.91
2019-05-14T08:58:52.754Z,99402.47
2019-05-14T09:02:05.840Z,99401.09
2019-05-14T09:05:05.010Z,99400.66
2019-05-14T09:08:09.786Z,99396.81
2019-05-14T09:11:14.565Z,99397.80
2019-05-14T09:14:18.992Z,99395.97
2019-05-14T09:17:23.426Z,99391.88
2019-05-14T09:20:29.014Z,99396.95
2019-05-14T09:23:33.877Z,99403.48
2019-05-14T09:26:39.080Z,99397.59
2019-05-14T09:29:44.058Z,99395.99
2019-05-14T09:32:49.404Z,99398.96
2019-05-14T09:36:09.798Z,99394.64
2019-05-14T09:39:00.185Z,99394.65
2019-05-14T09:42:04.623Z,99394.39
2019-05-14T09:45:11.411Z,99391.13
2019-05-14T09:48:18.067Z,99387.59
2019-05-14T09:51:22.355Z,99373.16
2019-05-14T09:54:28.795Z,99373.57
2019-05-14T09:57:33.717Z,99381.63
2019-05-14T10:00:38.953Z,99374.66
2019-05-14T10:03:44.086Z,99382.75
2019-05-14T10:06:48.820Z,99376.81
2019-05-14T10:09:53.557Z,99378.70
2019-05-14T10:13:01.146Z,99369.52
2019-05-14T10:16:04.156Z,99374.61
2019-05-14T10:19:08.599Z,99370.30
2019-05-14T10:22:13.036Z,99370.80
2019-05-14T10:25:18.515Z,99363.89
2019-05-14T10:28:22.952Z,99362.36
2019-05-14T10:31:28.912Z,99364.36
2019-05-14T10:34:33.605Z,99361.88
2019-05-14T10:37:40.020Z,99358.32
2019-05-14T10:40:44.230Z,99362.48
2019-05-14T10:43:49.790Z,99363.06
2019-05-14T10:46:54.378Z,99353.90
2019-05-14T10:49:59.142Z,99358.52
2019-05-14T10:53:04.020Z,99350.98
2019-05-14T10:56:09.865Z,99349.27
2019-05-14T10:59:14.762Z,99352.80
2019-05-14T11:02:19.196Z,99349.34
2019-05-14T11:05:23.638Z,99339.14
2019-05-14T11:08:29.621Z,99341.84
2019-05-14T11:11:34.381Z,99347.63
2019-05-14T11:14:39.135Z,99337.61
2019-05-14T11:17:43.572Z,99334.55
2019-05-14T11:20:51.452Z,99331.77
2019-05-14T11:23:54.458Z,99325.05
2019-05-14T11:26:59.237Z,99311.51
2019-05-14T11:30:04.859Z,99315.32
2019-05-14T11:33:09.355Z,99307.95
2019-05-14T11:36:13.794Z,99312.38
2019-05-14T11:39:18.514Z,99303.50
2019-05-14T11:42:22.961Z,99308.64
2019-05-14T11:45:27.739Z,99310.52
2019-05-14T11:48:32.180Z,99304.04
2019-05-14T11:51:58.999Z,99295.78
2019-05-14T11:54:42.772Z,99298.19
2019-05-14T11:57:48.523Z,99283.94
2019-05-14T12:00:53.042Z,99294.14
2019-05-14T12:03:59.744Z,99288.05
2019-05-14T12:07:03.968Z,99290.38
2019-05-14T12:10:10.020Z,99288.45
2019-05-14T12:13:14.461Z,99275.98
2019-05-14T12:16:18.899Z,99294.44
2019-05-14T12:19:23.339Z,99278.59
2019-05-14T12:22:28.602Z,99277.77
2019-05-14T12:25:33.331Z,99278.23
2019-05-14T12:28:38.761Z,99285.23
2019-05-14T12:31:43.424Z,99288.73
2019-05-14T12:34:48.867Z,99289.00
2019-05-14T12:37:53.481Z,99292.41
2019-05-14T12:40:58.585Z,99284.17
2019-05-14T12:44:03.607Z,99281.64
2019-05-14T12:47:09.438Z,99272.23
2019-05-14T12:50:14.700Z,99270.39
2019-05-14T12:53:19.976Z,99259.16
2019-05-14T12:56:24.999Z,99254.08
2019-05-14T12:59:29.420Z,99255.80
2019-05-14T13:02:33.858Z,99250.80
2019-05-14T13:05:38.292Z,99254.31
2019-05-14T13:08:42.735Z,99256.44
2019-05-14T13:11:47.981Z,99243.25
2019-05-14T13:14:52.617Z,99244.34
2019-05-14T13:17:57.064Z,99238.89
2019-05-14T13:21:01.498Z,99243.80
2019-05-14T13:24:08.768Z,99231.63
2019-05-14T13:27:12.394Z,99223.95
2019-05-14T13:30:18.603Z,99222.95
2019-05-14T13:33:23.496Z,99223.87
2019-05-14T13:36:28.892Z,99220.81
2019-05-14T13:39:33.600Z,99215.20
2019-05-14T13:42:39.969Z,99213.60
2019-05-14T13:45:45.267Z,99209.16
2019-05-14T13:48:50.381Z,99210.95
2019-05-14T13:51:54.940Z,99211.44
2019-05-14T13:54:59.374Z,99203.39
2019-05-14T13:58:04.820Z,99189.25
2019-05-14T14:01:10.136Z,99183.12
2019-05-14T14:04:15.248Z,99182.47
2019-05-14T14:07:20.136Z,99184.94
2019-05-14T14:10:24.988Z,99187.80
2019-05-14T14:13:31.326Z,99184.34
2019-05-14T14:16:36.169Z,99180.58
2019-05-14T14:19:40.899Z,99170.58
2019-05-14T14:22:45.347Z,99166.49
2019-05-14T14:25:54.781Z,99170.69
2019-05-14T14:28:55.969Z,99175.91
2019-05-14T14:32:01.172Z,99170.01
2019-05-14T14:35:08.710Z,99158.81
2019-05-14T14:38:12.612Z,99160.03
2019-05-14T14:41:19.405Z,99167.64
2019-05-14T14:44:23.202Z,99167.75
2019-05-14T14:47:29.340Z,99172.52
2019-05-14T14:50:33.864Z,99160.26
2019-05-14T14:53:52.967Z,99158.33
2019-05-14T14:56:44.734Z,99152.34
2019-05-14T14:59:49.184Z,99148.17
2019-05-14T15:02:53.627Z,99153.67
2019-05-14T15:05:58.937Z,99134.24
2019-05-14T15:09:04.576Z,99149.56
2019-05-14T15:12:09.231Z,99137.89
2019-05-14T15:15:13.895Z,99144.64
2019-05-14T15:18:18.882Z,99145.86
2019-05-14T15:21:23.710Z,99139.30
2019-05-14T15:24:28.222Z,99152.82
2019-05-14T15:27:32.965Z,99160.31
2019-05-14T15:30:39.608Z,99155.57
2019-05-14T15:33:43.581Z,99154.13
2019-05-14T15:36:49.189Z,99149.55
2019-05-14T15:39:53.928Z,99148.96
2019-05-14T15:43:01.920Z,99140.03
2019-05-14T15:46:04.902Z,99135.96
2019-05-14T15:49:09.681Z,99129.91
2019-05-14T15:52:14.115Z,99131.48
2019-05-14T15:55:18.550Z,99128.39
2019-05-14T15:58:23.364Z,99128.81
2019-05-14T16:01:28.561Z,99134.63
2019-05-14T16:04:33.421Z,99131.98
2019-05-14T16:07:39.140Z,99125.52
2019-05-14T16:10:44.212Z,99126.39
2019-05-14T16:13:49.366Z,99117.48
2019-05-14T16:16:54.075Z,99123.78
2019-05-14T16:19:58.533Z,99110.23
2019-05-14T16:23:03.266Z,99103.38
2019-05-14T16:26:08.914Z,99107.58
2019-05-14T16:29:13.736Z,99108.59
2019-05-14T16:32:18.455Z,99112.64
2019-05-14T16:35:22.895Z,99111.27
2019-05-14T16:38:28.534Z,99103.85
2019-05-14T16:41:33.473Z,99105.27
2019-05-14T16:44:39.110Z,99105.66
2019-05-14T16:47:43.691Z,99114.27
2019-05-14T16:50:48.927Z,99112.38
2019-05-14T16:53:53.840Z,99113.03
2019-05-14T16:56:58.316Z,99112.06
2019-05-14T17:00:02.760Z,99118.70
2019-05-14T17:03:08.276Z,99116.70
2019-05-14T17:06:13.058Z,99113.73
2019-05-14T17:09:18.748Z,99119.64
2019-05-14T17:12:23.312Z,99117.77
2019-05-14T17:15:28.776Z,99121.27
2019-05-14T17:18:33.523Z,99118.34
2019-05-14T17:21:39.050Z,99108.31
2019-05-14T17:24:43.675Z,99111.55
2019-05-14T17:27:48.569Z,99112.59
2019-05-14T17:30:53.229Z,99106.12
2019-05-14T17:33:58.492Z,99110.48
2019-05-14T17:37:03.015Z,99117.77
2019-05-14T17:40:09.384Z,99107.27
2019-05-14T17:43:14.087Z,99097.28
2019-05-14T17:46:19.165Z,99106.19
2019-05-14T17:49:23.596Z,99099.75
2019-05-14T17:52:30.141Z,99107.56
2019-05-14T17:55:44.585Z,99100.27
2019-05-14T17:58:40.741Z,99097.88
2019-05-14T18:01:45.191Z,99094.11
2019-05-14T18:04:49.905Z,99094.91
2019-05-14T18:07:54.345Z,99097.61
2019-05-14T18:11:01.553Z,99098.95
2019-05-14T18:14:04.971Z,99099.23
2019-05-14T18:17:09.481Z,99103.53
2019-05-14T18:20:14.379Z,99097.88
2019-05-14T18:23:18.823Z,99098.44
2019-05-14T18:26:23.638Z,99091.42
2019-05-14T18:29:29.555Z,99098.17
2019-05-14T18:32:34.182Z,99103.02
2019-05-14T18:35:45.267Z,99107.59
2019-05-14T18:38:45.119Z,99107.56
2019-05-14T18:41:50.131Z,99099.45
2019-05-14T18:44:55.087Z,99105.35
2019-05-14T18:47:59.819Z,99105.86
2019-05-14T18:51:04.552Z,99108.80
2019-05-14T18:54:08.989Z,99115.52
2019-05-14T18:57:13.426Z,99111.44
2019-05-14T19:00:18.726Z,99113.05
2019-05-14T19:03:23.578Z,99115.17
2019-05-14T19:06:28.493Z,99112.98
2019-05-14T19:09:33.340Z,99108.34
2019-05-14T19:12:38.723Z,99116.66
2019-05-14T19:15:43.560Z,99110.79
2019-05-14T19:18:48.952Z,99112.14
2019-05-14T19:21:53.531Z,99115.61
2019-05-14T19:24:58.697Z,99116.41
2019-05-14T19:28:03.572Z,99114.24
2019-05-14T19:31:09.179Z,99118.52
2019-05-14T19:34:13.724Z,99126.05
2019-05-14T19:37:19.070Z,99122.49
2019-05-14T19:40:23.688Z,99123.53
2019-05-14T19:43:29.131Z,99130.26
2019-05-14T19:46:33.673Z,99131.63
2019-05-14T19:49:38.502Z,99125.73
2019-05-14T19:52:42.939Z,99129.27
2019-05-14T19:55:48.557Z,99130.08
2019-05-14T19:58:53.208Z,99131.95
2019-05-14T20:01:58.917Z,99132.42
2019-05-14T20:05:05.637Z,99141.80
2019-05-14T20:08:10.093Z,99144.70
2019-05-14T20:11:14.526Z,99152.48
2019-05-14T20:14:18.966Z,99155.14
2019-05-14T20:17:23.403Z,99151.11
2019-05-14T20:20:28.790Z,99153.75
2019-05-14T20:23:33.509Z,99155.80
2019-05-14T20:26:38.974Z,99158.06
2019-05-14T20:29:43.770Z,99152.89
2019-05-14T20:32:49.588Z,99151.48
2019-05-14T20:35:54.127Z,99152.42
2019-05-14T20:38:58.990Z,99150.56
2019-05-14T20:42:03.765Z,99149.78
2019-05-14T20:45:08.749Z,99146.34
2019-05-14T20:48:13.187Z,99151.70
2019-05-14T20:51:18.596Z,99154.52
2019-05-14T20:54:23.191Z,99153.91
2019-05-14T20:57:32.939Z,99152.56
2019-05-14T21:00:34.521Z,99151.27
2019-05-14T21:03:39.231Z,99149.72
2019-05-14T21:06:43.672Z,99153.13
2019-05-14T21:09:49.270Z,99156.20
2019-05-14T21:12:54.264Z,99153.01
2019-05-14T21:15:58.709Z,99149.59
2019-05-14T21:19:03.526Z,99150.02
2019-05-14T21:22:08.485Z,99150.02
2019-05-14T21:25:13.616Z,99153.31
2019-05-14T21:28:18.058Z,99147.08
2019-05-14T21:31:22.494Z,99151.58
2019-05-14T21:34:28.229Z,99154.73
2019-05-14T21:37:33.012Z,99146.59
2019-05-14T21:40:39.003Z,99145.00
2019-05-14T21:43:44.011Z,99151.55
2019-05-14T21:46:48.444Z,99138.78
2019-05-14T21:49:53.169Z,99143.16
2019-05-14T21:52:59.700Z,99139.29
2019-05-14T21:56:04.475Z,99147.22
2019-05-14T21:59:09.666Z,99146.24
2019-05-14T22:02:24.339Z,99148.16
2019-05-14T22:05:21.458Z,99154.83
2019-05-14T22:08:27.949Z,99153.38
2019-05-14T22:11:32.831Z,99153.84
2019-05-14T22:14:38.011Z,99154.09
2019-05-14T22:17:42.903Z,99146.78
2019-05-14T22:20:48.270Z,99147.50
2019-05-14T22:23:53.185Z,99135.55
2019-05-14T22:26:58.180Z,99134.30
2019-05-14T22:30:03.577Z,99135.55
2019-05-14T22:33:08.735Z,99128.20
2019-05-14T22:36:13.648Z,99131.27
2019-05-14T22:39:19.994Z,99126.00
2019-05-14T22:42:24.238Z,99125.63
2019-05-14T22:45:28.975Z,99118.48
2019-05-14T22:48:33.699Z,99120.33
2019-05-14T22:51:38.401Z,99115.22
2019-05-14T22:54:43.043Z,99105.80
2019-05-14T22:57:48.378Z,99113.09
2019-05-14T23:01:12.860Z,99108.27
2019-05-14T23:03:59.704Z,99109.36
2019-05-14T23:07:04.316Z,99108.19
2019-05-14T23:10:09.795Z,99115.59
2019-05-14T23:13:14.235Z,99110.56
2019-05-14T23:16:32.675Z,99114.33
2019-05-14T23:19:25.203Z,99115.34
2019-05-14T23:22:29.831Z,99118.26
2019-05-14T23:25:34.338Z,99114.02
2019-05-14T23:28:45.296Z,99118.41
2019-05-14T23:31:45.242Z,99116.98
2019-05-14T23:34:49.666Z,99109.72
2019-05-14T23:37:54.166Z,99111.05
2019-05-14T23:40:59.946Z,99105.58
2019-05-14T23:44:04.437Z,99101.92
2019-05-14T23:47:09.213Z,99101.84
2019-05-14T23:50:13.823Z,99099.82
2019-05-14T23:53:18.639Z,99099.58
2019-05-14T23:56:23.405Z,99095.64
2019-05-14T23:59:29.396Z,99092.19
